sensor_id;sensor_type;location;lat;lon;timestamp;P1;durP1;ratioP1;P2;durP2;ratioP2
23159;SDS011;11748;50.844;4.396;2023-02-15T00:01:05;52.38;;;27.75;;
23159;SDS011;11748;50.844;4.396;2023-02-15T00:03:32;49.67;;;27.98;;
23159;SDS011;11748;50.844;4.396;2023-02-15T00:05:58;46.50;;;29.05;;
23159;SDS011;11748;50.844;4.396;2023-02-15T00:08:23;52.10;;;28.30;;
23159;SDS011;11748;50.844;4.396;2023-02-15T00:10:49;46.70;;;28.60;;
23159;SDS011;11748;50.844;4.396;2023-02-15T00:13:23;50.78;;;28.38;;
23159;SDS011;11748;50.844;4.396;2023-02-15T00:15:48;50.25;;;27.92;;
23159;SDS011;11748;50.844;4.396;2023-02-15T00:18:14;48.35;;;27.98;;
23159;SDS011;11748;50.844;4.396;2023-02-15T00:20:39;53.85;;;29.92;;
23159;SDS011;11748;50.844;4.396;2023-02-15T00:23:05;48.80;;;29.35;;
23159;SDS011;11748;50.844;4.396;2023-02-15T00:25:31;47.25;;;27.80;;
23159;SDS011;11748;50.844;4.396;2023-02-15T00:27:56;49.47;;;28.73;;
23159;SDS011;11748;50.844;4.396;2023-02-15T00:30:24;47.83;;;27.55;;
23159;SDS011;11748;50.844;4.396;2023-02-15T00:32:50;50.97;;;29.58;;
23159;SDS011;11748;50.844;4.396;2023-02-15T00:35:15;48.25;;;27.95;;
23159;SDS011;11748;50.844;4.396;2023-02-15T00:37:41;46.55;;;27.27;;
23159;SDS011;11748;50.844;4.396;2023-02-15T00:40:07;50.05;;;28.00;;
23159;SDS011;11748;50.844;4.396;2023-02-15T00:42:33;49.75;;;29.02;;
23159;SDS011;11748;50.844;4.396;2023-02-15T00:44:59;49.67;;;29.25;;
23159;SDS011;11748;50.844;4.396;2023-02-15T00:47:24;46.15;;;27.23;;
23159;SDS011;11748;50.844;4.396;2023-02-15T00:49:50;50.60;;;27.85;;
23159;SDS011;11748;50.844;4.396;2023-02-15T00:52:16;51.50;;;28.30;;
23159;SDS011;11748;50.844;4.396;2023-02-15T00:54:41;51.08;;;28.92;;
23159;SDS011;11748;50.844;4.396;2023-02-15T00:57:07;51.67;;;29.70;;
23159;SDS011;11748;50.844;4.396;2023-02-15T00:59:33;52.35;;;29.17;;
23159;SDS011;11748;50.844;4.396;2023-02-15T01:01:59;49.95;;;26.95;;
23159;SDS011;11748;50.844;4.396;2023-02-15T01:04:24;48.67;;;28.10;;
23159;SDS011;11748;50.844;4.396;2023-02-15T01:06:50;53.35;;;29.08;;
23159;SDS011;11748;50.844;4.396;2023-02-15T01:09:16;51.28;;;28.88;;
23159;SDS011;11748;50.844;4.396;2023-02-15T01:11:41;47.30;;;26.67;;
23159;SDS011;11748;50.844;4.396;2023-02-15T01:14:07;46.03;;;27.00;;
23159;SDS011;11748;50.844;4.396;2023-02-15T01:16:33;42.80;;;25.98;;
23159;SDS011;11748;50.844;4.396;2023-02-15T01:18:58;44.03;;;25.50;;
23159;SDS011;11748;50.844;4.396;2023-02-15T01:21:25;49.95;;;26.13;;
23159;SDS011;11748;50.844;4.396;2023-02-15T01:23:51;43.45;;;25.92;;
23159;SDS011;11748;50.844;4.396;2023-02-15T01:26:17;42.13;;;26.60;;
23159;SDS011;11748;50.844;4.396;2023-02-15T01:28:43;45.42;;;25.33;;
23159;SDS011;11748;50.844;4.396;2023-02-15T01:31:10;39.92;;;24.33;;
23159;SDS011;11748;50.844;4.396;2023-02-15T01:33:37;41.83;;;24.83;;
23159;SDS011;11748;50.844;4.396;2023-02-15T01:36:04;39.42;;;24.40;;
23159;SDS011;11748;50.844;4.396;2023-02-15T01:38:30;47.63;;;25.40;;
23159;SDS011;11748;50.844;4.396;2023-02-15T01:40:56;42.17;;;24.55;;
23159;SDS011;11748;50.844;4.396;2023-02-15T01:43:42;49.38;;;25.88;;
23159;SDS011;11748;50.844;4.396;2023-02-15T01:46:11;44.42;;;26.08;;
23159;SDS011;11748;50.844;4.396;2023-02-15T01:48:50;43.22;;;25.77;;
23159;SDS011;11748;50.844;4.396;2023-02-15T01:51:21;44.08;;;25.60;;
23159;SDS011;11748;50.844;4.396;2023-02-15T01:53:51;41.80;;;24.25;;
23159;SDS011;11748;50.844;4.396;2023-02-15T01:56:26;43.17;;;25.45;;
23159;SDS011;11748;50.844;4.396;2023-02-15T01:58:55;39.65;;;25.02;;
23159;SDS011;11748;50.844;4.396;2023-02-15T02:01:24;42.80;;;26.08;;
23159;SDS011;11748;50.844;4.396;2023-02-15T02:03:58;46.30;;;27.02;;
23159;SDS011;11748;50.844;4.396;2023-02-15T02:06:29;47.28;;;26.85;;
23159;SDS011;11748;50.844;4.396;2023-02-15T02:08:57;44.00;;;25.42;;
23159;SDS011;11748;50.844;4.396;2023-02-15T02:11:23;49.45;;;27.50;;
23159;SDS011;11748;50.844;4.396;2023-02-15T02:13:49;44.83;;;27.17;;
23159;SDS011;11748;50.844;4.396;2023-02-15T02:27:29;61.25;;;31.20;;
23159;SDS011;11748;50.844;4.396;2023-02-15T02:49:30;49.00;;;28.38;;
23159;SDS011;11748;50.844;4.396;2023-02-15T02:52:53;49.40;;;29.52;;
23159;SDS011;11748;50.844;4.396;2023-02-15T02:55:01;46.05;;;28.25;;
23159;SDS011;11748;50.844;4.396;2023-02-15T02:57:33;44.25;;;28.02;;
23159;SDS011;11748;50.844;4.396;2023-02-15T03:00:02;49.03;;;29.30;;
23159;SDS011;11748;50.844;4.396;2023-02-15T03:02:32;45.72;;;28.88;;
23159;SDS011;11748;50.844;4.396;2023-02-15T03:05:06;50.13;;;29.42;;
23159;SDS011;11748;50.844;4.396;2023-02-15T03:07:36;46.92;;;29.42;;
23159;SDS011;11748;50.844;4.396;2023-02-15T03:10:04;49.60;;;30.33;;
23159;SDS011;11748;50.844;4.396;2023-02-15T03:12:32;46.55;;;27.67;;
23159;SDS011;11748;50.844;4.396;2023-02-15T03:15:10;48.25;;;28.42;;
23159;SDS011;11748;50.844;4.396;2023-02-15T03:17:44;48.47;;;28.75;;
23159;SDS011;11748;50.844;4.396;2023-02-15T03:22:48;49.58;;;28.88;;
23159;SDS011;11748;50.844;4.396;2023-02-15T03:25:31;47.20;;;28.52;;
23159;SDS011;11748;50.844;4.396;2023-02-15T03:28:00;46.83;;;29.50;;
23159;SDS011;11748;50.844;4.396;2023-02-15T03:30:30;46.80;;;29.08;;
23159;SDS011;11748;50.844;4.396;2023-02-15T03:32:58;48.88;;;29.33;;
23159;SDS011;11748;50.844;4.396;2023-02-15T03:35:25;46.58;;;28.73;;
23159;SDS011;11748;50.844;4.396;2023-02-15T03:38:06;48.03;;;29.02;;
23159;SDS011;11748;50.844;4.396;2023-02-15T03:40:34;50.40;;;29.42;;
23159;SDS011;11748;50.844;4.396;2023-02-15T03:46:20;48.33;;;29.03;;
23159;SDS011;11748;50.844;4.396;2023-02-15T03:52:17;47.75;;;28.58;;
23159;SDS011;11748;50.844;4.396;2023-02-15T03:54:43;46.25;;;29.23;;
23159;SDS011;11748;50.844;4.396;2023-02-15T04:05:30;47.60;;;27.52;;
23159;SDS011;11748;50.844;4.396;2023-02-15T04:07:56;43.65;;;27.92;;
23159;SDS011;11748;50.844;4.396;2023-02-15T04:10:21;45.80;;;27.45;;
23159;SDS011;11748;50.844;4.396;2023-02-15T04:13:06;51.28;;;29.42;;
23159;SDS011;11748;50.844;4.396;2023-02-15T04:15:32;45.88;;;26.92;;
23159;SDS011;11748;50.844;4.396;2023-02-15T04:18:16;48.75;;;29.02;;
23159;SDS011;11748;50.844;4.396;2023-02-15T04:20:45;45.72;;;26.95;;
23159;SDS011;11748;50.844;4.396;2023-02-15T04:23:30;56.08;;;27.27;;
23159;SDS011;11748;50.844;4.396;2023-02-15T04:26:14;46.25;;;26.23;;
23159;SDS011;11748;50.844;4.396;2023-02-15T04:28:40;41.03;;;26.90;;
23159;SDS011;11748;50.844;4.396;2023-02-15T04:31:06;42.85;;;26.40;;
23159;SDS011;11748;50.844;4.396;2023-02-15T04:33:31;44.55;;;27.77;;
23159;SDS011;11748;50.844;4.396;2023-02-15T04:35:57;44.45;;;26.95;;
23159;SDS011;11748;50.844;4.396;2023-02-15T04:38:23;45.40;;;28.85;;
23159;SDS011;11748;50.844;4.396;2023-02-15T04:40:49;48.78;;;28.98;;
23159;SDS011;11748;50.844;4.396;2023-02-15T04:43:16;45.15;;;26.63;;
23159;SDS011;11748;50.844;4.396;2023-02-15T04:45:47;43.00;;;27.98;;
23159;SDS011;11748;50.844;4.396;2023-02-15T04:48:14;44.72;;;27.42;;
23159;SDS011;11748;50.844;4.396;2023-02-15T04:50:40;44.83;;;27.30;;
23159;SDS011;11748;50.844;4.396;2023-02-15T04:53:05;46.42;;;27.17;;
23159;SDS011;11748;50.844;4.396;2023-02-15T04:55:31;43.13;;;27.73;;
23159;SDS011;11748;50.844;4.396;2023-02-15T04:57:56;48.97;;;28.98;;
23159;SDS011;11748;50.844;4.396;2023-02-15T05:00:22;46.58;;;26.83;;
23159;SDS011;11748;50.844;4.396;2023-02-15T05:02:48;48.20;;;29.67;;
23159;SDS011;11748;50.844;4.396;2023-02-15T05:05:13;47.38;;;29.00;;
23159;SDS011;11748;50.844;4.396;2023-02-15T05:07:40;46.75;;;27.50;;
23159;SDS011;11748;50.844;4.396;2023-02-15T05:10:06;50.10;;;29.35;;
23159;SDS011;11748;50.844;4.396;2023-02-15T05:12:32;47.33;;;29.02;;
23159;SDS011;11748;50.844;4.396;2023-02-15T05:14:57;41.20;;;27.17;;
23159;SDS011;11748;50.844;4.396;2023-02-15T05:17:23;45.83;;;28.83;;
23159;SDS011;11748;50.844;4.396;2023-02-15T05:19:49;46.55;;;28.63;;
23159;SDS011;11748;50.844;4.396;2023-02-15T05:22:14;50.25;;;28.98;;
23159;SDS011;11748;50.844;4.396;2023-02-15T05:24:40;45.97;;;28.80;;
23159;SDS011;11748;50.844;4.396;2023-02-15T05:27:24;47.08;;;28.55;;
23159;SDS011;11748;50.844;4.396;2023-02-15T05:30:08;44.38;;;28.83;;
23159;SDS011;11748;50.844;4.396;2023-02-15T05:32:37;48.20;;;28.85;;
23159;SDS011;11748;50.844;4.396;2023-02-15T05:35:04;49.47;;;28.88;;
23159;SDS011;11748;50.844;4.396;2023-02-15T05:37:30;46.30;;;28.88;;
23159;SDS011;11748;50.844;4.396;2023-02-15T05:39:56;44.03;;;28.83;;
23159;SDS011;11748;50.844;4.396;2023-02-15T05:42:21;48.80;;;28.35;;
23159;SDS011;11748;50.844;4.396;2023-02-15T05:44:47;50.15;;;28.63;;
23159;SDS011;11748;50.844;4.396;2023-02-15T05:47:13;47.28;;;27.88;;
23159;SDS011;11748;50.844;4.396;2023-02-15T05:49:38;50.33;;;30.85;;
23159;SDS011;11748;50.844;4.396;2023-02-15T05:52:04;46.38;;;28.75;;
23159;SDS011;11748;50.844;4.396;2023-02-15T05:54:30;47.00;;;28.23;;
23159;SDS011;11748;50.844;4.396;2023-02-15T05:56:56;44.05;;;27.23;;
23159;SDS011;11748;50.844;4.396;2023-02-15T05:59:21;45.42;;;27.98;;
23159;SDS011;11748;50.844;4.396;2023-02-15T06:01:47;46.92;;;26.88;;
23159;SDS011;11748;50.844;4.396;2023-02-15T06:04:13;47.08;;;28.63;;
23159;SDS011;11748;50.844;4.396;2023-02-15T06:06:39;50.08;;;27.98;;
23159;SDS011;11748;50.844;4.396;2023-02-15T06:09:04;47.08;;;27.67;;
23159;SDS011;11748;50.844;4.396;2023-02-15T06:11:30;50.95;;;27.25;;
23159;SDS011;11748;50.844;4.396;2023-02-15T06:13:56;44.75;;;27.75;;
23159;SDS011;11748;50.844;4.396;2023-02-15T06:16:22;43.47;;;27.20;;
23159;SDS011;11748;50.844;4.396;2023-02-15T06:18:47;43.70;;;27.65;;
23159;SDS011;11748;50.844;4.396;2023-02-15T06:21:13;47.08;;;26.67;;
23159;SDS011;11748;50.844;4.396;2023-02-15T06:23:39;42.35;;;27.00;;
23159;SDS011;11748;50.844;4.396;2023-02-15T06:26:05;42.53;;;26.67;;
23159;SDS011;11748;50.844;4.396;2023-02-15T06:28:31;49.42;;;27.65;;
23159;SDS011;11748;50.844;4.396;2023-02-15T06:30:56;47.53;;;28.27;;
23159;SDS011;11748;50.844;4.396;2023-02-15T06:33:22;47.65;;;29.08;;
23159;SDS011;11748;50.844;4.396;2023-02-15T06:35:48;46.50;;;28.42;;
23159;SDS011;11748;50.844;4.396;2023-02-15T06:38:14;44.55;;;27.45;;
23159;SDS011;11748;50.844;4.396;2023-02-15T06:40:39;46.50;;;27.70;;
23159;SDS011;11748;50.844;4.396;2023-02-15T06:43:05;46.78;;;27.67;;
23159;SDS011;11748;50.844;4.396;2023-02-15T06:45:31;45.55;;;27.02;;
23159;SDS011;11748;50.844;4.396;2023-02-15T06:47:57;47.35;;;27.90;;
23159;SDS011;11748;50.844;4.396;2023-02-15T06:50:22;48.08;;;27.92;;
23159;SDS011;11748;50.844;4.396;2023-02-15T06:52:48;46.38;;;25.65;;
23159;SDS011;11748;50.844;4.396;2023-02-15T06:55:14;45.10;;;25.77;;
23159;SDS011;11748;50.844;4.396;2023-02-15T06:57:40;48.97;;;26.92;;
23159;SDS011;11748;50.844;4.396;2023-02-15T07:00:06;44.03;;;25.25;;
23159;SDS011;11748;50.844;4.396;2023-02-15T07:02:33;43.97;;;25.10;;
23159;SDS011;11748;50.844;4.396;2023-02-15T07:04:58;42.05;;;25.23;;
23159;SDS011;11748;50.844;4.396;2023-02-15T07:07:24;44.25;;;26.75;;
23159;SDS011;11748;50.844;4.396;2023-02-15T07:09:50;44.88;;;25.65;;
23159;SDS011;11748;50.844;4.396;2023-02-15T07:12:16;46.70;;;25.52;;
23159;SDS011;11748;50.844;4.396;2023-02-15T07:15:00;46.60;;;27.30;;
23159;SDS011;11748;50.844;4.396;2023-02-15T07:17:29;44.85;;;26.67;;
23159;SDS011;11748;50.844;4.396;2023-02-15T07:19:56;51.33;;;27.70;;
23159;SDS011;11748;50.844;4.396;2023-02-15T07:22:22;44.70;;;27.10;;
23159;SDS011;11748;50.844;4.396;2023-02-15T07:24:48;48.25;;;26.10;;
23159;SDS011;11748;50.844;4.396;2023-02-15T07:27:14;52.05;;;26.00;;
23159;SDS011;11748;50.844;4.396;2023-02-15T07:29:39;46.22;;;25.38;;
23159;SDS011;11748;50.844;4.396;2023-02-15T07:32:05;49.67;;;26.08;;
23159;SDS011;11748;50.844;4.396;2023-02-15T07:34:31;47.38;;;25.83;;
23159;SDS011;11748;50.844;4.396;2023-02-15T07:36:57;53.55;;;25.45;;
23159;SDS011;11748;50.844;4.396;2023-02-15T07:39:22;49.70;;;26.95;;
23159;SDS011;11748;50.844;4.396;2023-02-15T07:41:48;48.92;;;26.13;;
23159;SDS011;11748;50.844;4.396;2023-02-15T07:44:14;46.58;;;25.27;;
23159;SDS011;11748;50.844;4.396;2023-02-15T07:46:40;46.70;;;27.00;;
23159;SDS011;11748;50.844;4.396;2023-02-15T07:49:06;51.67;;;26.13;;
23159;SDS011;11748;50.844;4.396;2023-02-15T07:51:33;52.38;;;26.52;;
23159;SDS011;11748;50.844;4.396;2023-02-15T07:53:58;43.50;;;25.95;;
23159;SDS011;11748;50.844;4.396;2023-02-15T07:56:24;47.08;;;24.95;;
23159;SDS011;11748;50.844;4.396;2023-02-15T07:58:50;42.90;;;24.55;;
23159;SDS011;11748;50.844;4.396;2023-02-15T08:01:16;45.42;;;24.27;;
23159;SDS011;11748;50.844;4.396;2023-02-15T08:03:45;43.03;;;23.98;;
23159;SDS011;11748;50.844;4.396;2023-02-15T08:06:11;44.92;;;24.17;;
23159;SDS011;11748;50.844;4.396;2023-02-15T08:08:39;45.42;;;25.13;;
23159;SDS011;11748;50.844;4.396;2023-02-15T08:13:58;37.03;;;23.52;;
23159;SDS011;11748;50.844;4.396;2023-02-15T08:19:16;43.72;;;22.80;;
23159;SDS011;11748;50.844;4.396;2023-02-15T08:21:50;41.85;;;23.63;;
23159;SDS011;11748;50.844;4.396;2023-02-15T08:24:18;42.45;;;24.45;;
23159;SDS011;11748;50.844;4.396;2023-02-15T08:26:46;40.50;;;23.77;;
23159;SDS011;11748;50.844;4.396;2023-02-15T08:29:16;39.90;;;23.35;;
23159;SDS011;11748;50.844;4.396;2023-02-15T08:31:47;48.40;;;23.55;;
23159;SDS011;11748;50.844;4.396;2023-02-15T08:34:14;42.95;;;22.15;;
23159;SDS011;11748;50.844;4.396;2023-02-15T08:36:42;38.97;;;20.83;;
23159;SDS011;11748;50.844;4.396;2023-02-15T08:39:10;41.85;;;20.77;;
23159;SDS011;11748;50.844;4.396;2023-02-15T08:41:36;34.83;;;19.85;;
23159;SDS011;11748;50.844;4.396;2023-02-15T08:44:04;33.75;;;20.33;;
23159;SDS011;11748;50.844;4.396;2023-02-15T08:46:33;34.92;;;19.27;;
23159;SDS011;11748;50.844;4.396;2023-02-15T08:49:00;37.53;;;19.70;;
23159;SDS011;11748;50.844;4.396;2023-02-15T08:51:28;40.20;;;21.38;;
23159;SDS011;11748;50.844;4.396;2023-02-15T08:54:00;39.72;;;21.10;;
23159;SDS011;11748;50.844;4.396;2023-02-15T08:56:32;37.88;;;19.77;;
23159;SDS011;11748;50.844;4.396;2023-02-15T08:58:59;35.38;;;19.85;;
23159;SDS011;11748;50.844;4.396;2023-02-15T09:01:26;34.50;;;19.85;;
23159;SDS011;11748;50.844;4.396;2023-02-15T09:03:57;34.85;;;19.77;;
23159;SDS011;11748;50.844;4.396;2023-02-15T09:06:25;33.15;;;18.88;;
23159;SDS011;11748;50.844;4.396;2023-02-15T09:08:52;41.00;;;20.08;;
23159;SDS011;11748;50.844;4.396;2023-02-15T09:11:20;35.38;;;18.20;;
23159;SDS011;11748;50.844;4.396;2023-02-15T09:13:52;34.42;;;19.35;;
23159;SDS011;11748;50.844;4.396;2023-02-15T09:16:23;34.60;;;19.00;;
23159;SDS011;11748;50.844;4.396;2023-02-15T09:18:51;36.45;;;18.92;;
23159;SDS011;11748;50.844;4.396;2023-02-15T09:21:20;37.42;;;19.20;;
23159;SDS011;11748;50.844;4.396;2023-02-15T09:23:48;32.42;;;18.77;;
23159;SDS011;11748;50.844;4.396;2023-02-15T09:26:16;33.97;;;19.13;;
23159;SDS011;11748;50.844;4.396;2023-02-15T09:28:44;36.30;;;18.98;;
23159;SDS011;11748;50.844;4.396;2023-02-15T09:31:14;31.20;;;18.20;;
23159;SDS011;11748;50.844;4.396;2023-02-15T09:33:41;38.88;;;20.38;;
23159;SDS011;11748;50.844;4.396;2023-02-15T09:38:43;33.92;;;19.35;;
23159;SDS011;11748;50.844;4.396;2023-02-15T09:58:00;33.53;;;18.77;;
23159;SDS011;11748;50.844;4.396;2023-02-15T10:06:31;32.85;;;19.00;;
23159;SDS011;11748;50.844;4.396;2023-02-15T10:19:57;34.40;;;18.45;;
23159;SDS011;11748;50.844;4.396;2023-02-15T10:31:11;36.15;;;19.85;;
23159;SDS011;11748;50.844;4.396;2023-02-15T10:36:41;41.45;;;21.48;;
23159;SDS011;11748;50.844;4.396;2023-02-15T10:42:25;34.45;;;19.00;;
23159;SDS011;11748;50.844;4.396;2023-02-15T11:00:57;38.97;;;20.92;;
23159;SDS011;11748;50.844;4.396;2023-02-15T11:03:37;39.35;;;21.55;;
23159;SDS011;11748;50.844;4.396;2023-02-15T11:06:09;38.15;;;22.27;;
23159;SDS011;11748;50.844;4.396;2023-02-15T11:08:42;35.15;;;21.58;;
23159;SDS011;11748;50.844;4.396;2023-02-15T11:11:53;42.17;;;21.67;;
23159;SDS011;11748;50.844;4.396;2023-02-15T11:14:05;37.33;;;21.23;;
23159;SDS011;11748;50.844;4.396;2023-02-15T11:16:39;38.80;;;21.85;;
23159;SDS011;11748;50.844;4.396;2023-02-15T11:21:50;40.75;;;22.33;;
23159;SDS011;11748;50.844;4.396;2023-02-15T11:24:20;33.65;;;20.30;;
23159;SDS011;11748;50.844;4.396;2023-02-15T11:31:49;40.40;;;22.05;;
23159;SDS011;11748;50.844;4.396;2023-02-15T11:36:54;39.20;;;22.17;;
23159;SDS011;11748;50.844;4.396;2023-02-15T11:39:23;34.13;;;20.55;;
23159;SDS011;11748;50.844;4.396;2023-02-15T11:41:53;38.45;;;21.80;;
23159;SDS011;11748;50.844;4.396;2023-02-15T11:44:30;40.17;;;22.98;;
23159;SDS011;11748;50.844;4.396;2023-02-15T11:47:00;42.03;;;23.80;;
23159;SDS011;11748;50.844;4.396;2023-02-15T11:49:31;40.80;;;23.02;;
23159;SDS011;11748;50.844;4.396;2023-02-15T11:51:59;39.25;;;22.55;;
23159;SDS011;11748;50.844;4.396;2023-02-15T11:54:29;39.03;;;22.73;;
23159;SDS011;11748;50.844;4.396;2023-02-15T11:57:34;40.92;;;22.42;;
23159;SDS011;11748;50.844;4.396;2023-02-15T12:02:33;42.10;;;23.42;;
23159;SDS011;11748;50.844;4.396;2023-02-15T12:05:07;40.83;;;23.20;;
23159;SDS011;11748;50.844;4.396;2023-02-15T12:07:45;39.22;;;22.90;;
23159;SDS011;11748;50.844;4.396;2023-02-15T12:10:19;42.47;;;23.25;;
23159;SDS011;11748;50.844;4.396;2023-02-15T12:15:42;41.92;;;24.08;;
23159;SDS011;11748;50.844;4.396;2023-02-15T12:21:07;40.75;;;23.67;;
23159;SDS011;11748;50.844;4.396;2023-02-15T12:23:41;43.20;;;24.92;;
23159;SDS011;11748;50.844;4.396;2023-02-15T12:26:14;40.63;;;24.58;;
23159;SDS011;11748;50.844;4.396;2023-02-15T12:28:48;42.45;;;25.30;;
23159;SDS011;11748;50.844;4.396;2023-02-15T12:31:27;46.53;;;24.83;;
23159;SDS011;11748;50.844;4.396;2023-02-15T12:33:59;41.53;;;24.85;;
23159;SDS011;11748;50.844;4.396;2023-02-15T12:36:29;47.10;;;24.50;;
23159;SDS011;11748;50.844;4.396;2023-02-15T12:41:45;40.03;;;24.08;;
23159;SDS011;11748;50.844;4.396;2023-02-15T12:44:21;43.42;;;24.60;;
23159;SDS011;11748;50.844;4.396;2023-02-15T12:49:33;41.30;;;25.38;;
23159;SDS011;11748;50.844;4.396;2023-02-15T12:52:06;41.17;;;25.05;;
23159;SDS011;11748;50.844;4.396;2023-02-15T12:54:42;50.17;;;26.85;;
23159;SDS011;11748;50.844;4.396;2023-02-15T12:57:15;48.75;;;25.90;;
23159;SDS011;11748;50.844;4.396;2023-02-15T12:59:54;42.13;;;24.60;;
23159;SDS011;11748;50.844;4.396;2023-02-15T13:02:26;41.38;;;24.92;;
23159;SDS011;11748;50.844;4.396;2023-02-15T13:05:10;39.97;;;24.80;;
23159;SDS011;11748;50.844;4.396;2023-02-15T13:07:44;43.25;;;24.70;;
23159;SDS011;11748;50.844;4.396;2023-02-15T13:10:25;36.65;;;24.23;;
23159;SDS011;11748;50.844;4.396;2023-02-15T13:12:56;41.88;;;23.88;;
23159;SDS011;11748;50.844;4.396;2023-02-15T13:15:27;44.00;;;25.15;;
23159;SDS011;11748;50.844;4.396;2023-02-15T13:18:02;43.60;;;25.65;;
23159;SDS011;11748;50.844;4.396;2023-02-15T13:20:29;43.55;;;25.35;;
23159;SDS011;11748;50.844;4.396;2023-02-15T13:22:58;45.50;;;26.05;;
23159;SDS011;11748;50.844;4.396;2023-02-15T13:25:32;44.70;;;25.85;;
23159;SDS011;11748;50.844;4.396;2023-02-15T13:28:05;41.45;;;24.55;;
23159;SDS011;11748;50.844;4.396;2023-02-15T13:30:36;40.10;;;23.92;;
23159;SDS011;11748;50.844;4.396;2023-02-15T13:33:23;40.55;;;24.95;;
23159;SDS011;11748;50.844;4.396;2023-02-15T13:41:19;44.97;;;25.27;;
23159;SDS011;11748;50.844;4.396;2023-02-15T13:44:19;43.92;;;26.83;;
23159;SDS011;11748;50.844;4.396;2023-02-15T13:52:24;45.10;;;26.10;;
23159;SDS011;11748;50.844;4.396;2023-02-15T14:03:07;43.90;;;27.63;;
23159;SDS011;11748;50.844;4.396;2023-02-15T14:16:30;46.17;;;26.80;;
23159;SDS011;11748;50.844;4.396;2023-02-15T14:19:29;46.25;;;27.58;;
23159;SDS011;11748;50.844;4.396;2023-02-15T14:22:16;49.45;;;28.15;;
23159;SDS011;11748;50.844;4.396;2023-02-15T14:35:04;45.83;;;26.58;;
23159;SDS011;11748;50.844;4.396;2023-02-15T14:43:33;45.22;;;28.02;;
23159;SDS011;11748;50.844;4.396;2023-02-15T14:54:08;52.30;;;30.30;;
23159;SDS011;11748;50.844;4.396;2023-02-15T14:56:35;50.65;;;30.60;;
23159;SDS011;11748;50.844;4.396;2023-02-15T15:01:40;64.38;;;32.13;;
23159;SDS011;11748;50.844;4.396;2023-02-15T15:04:12;55.58;;;31.75;;
23159;SDS011;11748;50.844;4.396;2023-02-15T15:06:56;50.97;;;29.80;;
23159;SDS011;11748;50.844;4.396;2023-02-15T15:09:29;52.28;;;29.52;;
23159;SDS011;11748;50.844;4.396;2023-02-15T15:15:01;52.83;;;30.35;;
23159;SDS011;11748;50.844;4.396;2023-02-15T15:25:40;50.22;;;29.83;;
23159;SDS011;11748;50.844;4.396;2023-02-15T15:31:46;50.75;;;31.13;;
23159;SDS011;11748;50.844;4.396;2023-02-15T15:33:59;46.75;;;30.25;;
23159;SDS011;11748;50.844;4.396;2023-02-15T15:39:27;50.20;;;30.88;;
23159;SDS011;11748;50.844;4.396;2023-02-15T15:42:27;52.88;;;32.90;;
23159;SDS011;11748;50.844;4.396;2023-02-15T15:50:17;49.58;;;31.15;;
23159;SDS011;11748;50.844;4.396;2023-02-15T15:52:50;49.53;;;30.83;;
23159;SDS011;11748;50.844;4.396;2023-02-15T15:55:23;53.90;;;32.92;;
23159;SDS011;11748;50.844;4.396;2023-02-15T15:57:59;62.70;;;33.55;;
23159;SDS011;11748;50.844;4.396;2023-02-15T16:03:15;52.55;;;32.63;;
23159;SDS011;11748;50.844;4.396;2023-02-15T16:05:49;54.50;;;32.13;;
23159;SDS011;11748;50.844;4.396;2023-02-15T16:08:30;56.00;;;32.40;;
23159;SDS011;11748;50.844;4.396;2023-02-15T16:11:34;53.03;;;32.08;;
23159;SDS011;11748;50.844;4.396;2023-02-15T16:13:55;46.50;;;30.75;;
23159;SDS011;11748;50.844;4.396;2023-02-15T16:16:23;50.88;;;31.85;;
23159;SDS011;11748;50.844;4.396;2023-02-15T16:18:53;58.67;;;32.65;;
23159;SDS011;11748;50.844;4.396;2023-02-15T16:21:29;62.42;;;31.38;;
23159;SDS011;11748;50.844;4.396;2023-02-15T16:25:03;52.75;;;32.72;;
23159;SDS011;11748;50.844;4.396;2023-02-15T16:27:08;61.83;;;33.03;;
23159;SDS011;11748;50.844;4.396;2023-02-15T16:29:43;55.78;;;31.58;;
23159;SDS011;11748;50.844;4.396;2023-02-15T16:32:30;54.67;;;32.15;;
23159;SDS011;11748;50.844;4.396;2023-02-15T16:34:59;49.58;;;31.58;;
23159;SDS011;11748;50.844;4.396;2023-02-15T16:37:27;53.97;;;31.40;;
23159;SDS011;11748;50.844;4.396;2023-02-15T16:39:58;52.53;;;31.38;;
23159;SDS011;11748;50.844;4.396;2023-02-15T16:42:24;52.08;;;32.10;;
23159;SDS011;11748;50.844;4.396;2023-02-15T16:45:35;54.80;;;32.25;;
23159;SDS011;11748;50.844;4.396;2023-02-15T16:47:41;48.72;;;31.25;;
23159;SDS011;11748;50.844;4.396;2023-02-15T16:50:19;55.15;;;31.40;;
23159;SDS011;11748;50.844;4.396;2023-02-15T16:53:06;63.47;;;32.22;;
23159;SDS011;11748;50.844;4.396;2023-02-15T16:55:40;56.65;;;35.75;;
23159;SDS011;11748;50.844;4.396;2023-02-15T16:58:07;54.45;;;30.67;;
23159;SDS011;11748;50.844;4.396;2023-02-15T17:00:40;51.60;;;31.90;;
23159;SDS011;11748;50.844;4.396;2023-02-15T17:08:06;53.25;;;31.75;;
23159;SDS011;11748;50.844;4.396;2023-02-15T17:14:11;53.90;;;32.80;;
23159;SDS011;11748;50.844;4.396;2023-02-15T17:16:50;53.22;;;32.50;;
23159;SDS011;11748;50.844;4.396;2023-02-15T17:19:26;53.42;;;31.30;;
23159;SDS011;11748;50.844;4.396;2023-02-15T17:27:02;60.40;;;33.42;;
23159;SDS011;11748;50.844;4.396;2023-02-15T17:29:33;60.25;;;34.03;;
23159;SDS011;11748;50.844;4.396;2023-02-15T17:34:43;59.58;;;33.13;;
23159;SDS011;11748;50.844;4.396;2023-02-15T17:37:26;55.08;;;32.65;;
23159;SDS011;11748;50.844;4.396;2023-02-15T17:39:55;55.70;;;33.10;;
23159;SDS011;11748;50.844;4.396;2023-02-15T17:42:22;54.45;;;33.35;;
23159;SDS011;11748;50.844;4.396;2023-02-15T17:44:48;55.92;;;32.70;;
23159;SDS011;11748;50.844;4.396;2023-02-15T17:47:15;57.75;;;33.65;;
23159;SDS011;11748;50.844;4.396;2023-02-15T17:49:46;54.05;;;32.60;;
23159;SDS011;11748;50.844;4.396;2023-02-15T17:52:14;50.17;;;32.90;;
23159;SDS011;11748;50.844;4.396;2023-02-15T17:54:43;55.00;;;33.67;;
23159;SDS011;11748;50.844;4.396;2023-02-15T17:57:28;51.97;;;31.95;;
23159;SDS011;11748;50.844;4.396;2023-02-15T17:59:55;51.35;;;31.23;;
23159;SDS011;11748;50.844;4.396;2023-02-15T18:02:40;55.92;;;32.20;;
23159;SDS011;11748;50.844;4.396;2023-02-15T18:05:24;50.13;;;32.20;;
23159;SDS011;11748;50.844;4.396;2023-02-15T18:08:15;48.85;;;31.25;;
23159;SDS011;11748;50.844;4.396;2023-02-15T18:11:01;49.42;;;30.90;;
23159;SDS011;11748;50.844;4.396;2023-02-15T18:13:46;50.00;;;31.08;;
23159;SDS011;11748;50.844;4.396;2023-02-15T18:16:22;45.95;;;29.88;;
23159;SDS011;11748;50.844;4.396;2023-02-15T18:18:52;51.58;;;31.10;;
23159;SDS011;11748;50.844;4.396;2023-02-15T18:21:20;49.75;;;30.75;;
23159;SDS011;11748;50.844;4.396;2023-02-15T18:23:47;49.20;;;30.27;;
23159;SDS011;11748;50.844;4.396;2023-02-15T18:26:18;49.53;;;30.05;;
23159;SDS011;11748;50.844;4.396;2023-02-15T18:28:45;52.35;;;31.92;;
23159;SDS011;11748;50.844;4.396;2023-02-15T18:31:12;52.45;;;31.88;;
23159;SDS011;11748;50.844;4.396;2023-02-15T18:33:43;48.65;;;31.00;;
23159;SDS011;11748;50.844;4.396;2023-02-15T18:36:14;50.47;;;32.08;;
23159;SDS011;11748;50.844;4.396;2023-02-15T18:38:45;48.67;;;30.83;;
23159;SDS011;11748;50.844;4.396;2023-02-15T18:41:18;54.67;;;32.63;;
23159;SDS011;11748;50.844;4.396;2023-02-15T18:43:44;47.88;;;30.92;;